Terminal Aerodrome Forecast
Issued by NWS Tampa Bay Area, FL

Home | Current Version | Previous Version | Text Only | Print | Product List | Glossary On
Versions: 1 2 3 4 5 6 7 8 9 10 11 12 13 14 15 16 17 18 19 20 21 22 23 24 25 26 27
000
FTUS42 KTBW 221500 AAA
TAFTPA
TAF AMD
KTPA 221502Z 2215/2312 14007G15KT P6SM FEW020 BKN150
     FM221700 18009KT P6SM SCT020 BKN040 OVC090
     FM230000 18006KT 6SM BR SCT020 BKN100
     FM230600 18004KT 4SM BR BKN015=

USA.gov is the U.S. government's official web portal to all federal, state and local government web resources and services.